Time;durP1;ratioP1;P1;durP2;ratioP2;P2;SDS_P1;SDS_P2;PMS_P1;PMS_P2;Temp;Humidity;BMP_temperature;BMP_pressure;BME280_temperature;BME280_humidity;BME280_pressure;Samples;Min_cycle;Max_cycle;Signal;HPM_P1;HPM_P2
2021/01/23 00:01:45;;;;;;;5.47;1.00;;;;;;;;;;4999954;28;20120;-54
2021/01/23 00:04:11;;;;;;;2.95;0.88;;;;;;;;;;4998276;28;20049;-53
2021/01/23 00:06:37;;;;;;;1.92;0.50;;;;;;;;;;4998164;28;20536;-53
2021/01/23 00:09:03;;;;;;;2.88;0.80;;;;;;;;;;4975395;28;20068;-55
2021/01/23 00:11:29;;;;;;;2.75;0.77;;;;;;;;;;4997233;28;20517;-53
2021/01/23 00:13:55;;;;;;;3.75;0.90;;;;;;;;;;4998246;28;20044;-56
2021/01/23 00:16:20;;;;;;;3.65;1.05;;;;;;;;;;4997421;28;20046;-52
2021/01/23 00:18:46;;;;;;;2.60;0.75;;;;;;;;;;4991918;28;20040;-54
2021/01/23 00:21:13;;;;;;;3.28;0.90;;;;;;;;;;4999479;28;20069;-54
2021/01/23 00:23:39;;;;;;;7.35;1.02;;;;;;;;;;4996445;28;20092;-52
2021/01/23 00:26:09;;;;;;;2.83;0.85;;;;;;;;;;4996098;28;20052;-54
2021/01/23 00:28:34;;;;;;;3.53;0.80;;;;;;;;;;4973120;28;20519;-53
2021/01/23 00:31:01;;;;;;;3.50;1.08;;;;;;;;;;4997851;28;20126;-56
2021/01/23 00:33:26;;;;;;;4.07;0.90;;;;;;;;;;4996658;28;20041;-52
2021/01/23 00:35:55;;;;;;;4.45;1.10;;;;;;;;;;4997989;28;20148;-56
2021/01/23 00:38:21;;;;;;;6.47;1.13;;;;;;;;;;4997035;28;20671;-54
2021/01/23 00:40:47;;;;;;;10.52;1.15;;;;;;;;;;4998532;28;20029;-55
2021/01/23 00:43:13;;;;;;;10.95;1.27;;;;;;;;;;4997537;28;20364;-51
2021/01/23 00:45:38;;;;;;;5.53;1.00;;;;;;;;;;4997684;28;20100;-53
2021/01/23 00:48:09;;;;;;;5.93;1.00;;;;;;;;;;4981260;28;20150;-53
2021/01/23 00:50:35;;;;;;;8.63;1.10;;;;;;;;;;4996245;28;20997;-56
2021/01/23 00:53:00;;;;;;;3.25;0.90;;;;;;;;;;4997136;28;22338;-57
2021/01/23 00:55:27;;;;;;;6.28;1.17;;;;;;;;;;4996298;28;20050;-55
2021/01/23 00:57:52;;;;;;;4.72;0.90;;;;;;;;;;4981321;28;20426;-51
2021/01/23 01:00:19;;;;;;;3.13;1.02;;;;;;;;;;4996506;28;20052;-52
2021/01/23 01:02:44;;;;;;;14.48;1.73;;;;;;;;;;4998221;28;20054;-55
2021/01/23 01:05:11;;;;;;;5.55;1.23;;;;;;;;;;4998048;28;20049;-54
2021/01/23 01:07:37;;;;;;;3.17;1.30;;;;;;;;;;4994877;28;20097;-54
2021/01/23 01:10:04;;;;;;;6.45;1.15;;;;;;;;;;4993784;28;20538;-55
2021/01/23 01:12:30;;;;;;;7.75;1.20;;;;;;;;;;4995266;28;20388;-51
2021/01/23 01:14:55;;;;;;;4.07;1.35;;;;;;;;;;4994610;28;20068;-53
2021/01/23 01:17:21;;;;;;;9.98;1.10;;;;;;;;;;4992141;28;20041;-56
2021/01/23 01:19:47;;;;;;;8.48;2.00;;;;;;;;;;4994032;28;20181;-53
2021/01/23 01:22:13;;;;;;;10.85;1.73;;;;;;;;;;4980417;28;20097;-55
2021/01/23 01:24:42;;;;;;;17.00;2.08;;;;;;;;;;4993090;28;20078;-55
2021/01/23 01:27:08;;;;;;;8.38;1.80;;;;;;;;;;4995401;28;20072;-53
2021/01/23 01:29:37;;;;;;;8.75;1.75;;;;;;;;;;4992600;28;20038;-54
2021/01/23 01:32:03;;;;;;;9.70;1.90;;;;;;;;;;4993994;28;20039;-54
2021/01/23 01:34:29;;;;;;;11.57;1.70;;;;;;;;;;4982774;28;20609;-54
2021/01/23 01:36:54;;;;;;;6.63;1.60;;;;;;;;;;4992346;28;20073;-52
2021/01/23 01:39:20;;;;;;;8.18;1.95;;;;;;;;;;4994748;28;20045;-53
2021/01/23 01:41:48;;;;;;;7.97;1.73;;;;;;;;;;4996002;28;20064;-53
2021/01/23 01:44:14;;;;;;;7.47;2.30;;;;;;;;;;4992873;28;20038;-52
2021/01/23 01:46:40;;;;;;;11.75;2.80;;;;;;;;;;4992837;28;20042;-53
2021/01/23 01:49:08;;;;;;;24.13;2.65;;;;;;;;;;4979065;28;20111;-53
2021/01/23 01:51:34;;;;;;;8.55;1.80;;;;;;;;;;4994177;28;20041;-53
2021/01/23 01:54:00;;;;;;;9.38;1.95;;;;;;;;;;4993477;28;20111;-57
2021/01/23 01:56:26;;;;;;;20.00;2.17;;;;;;;;;;4991522;28;20498;-55
2021/01/23 01:58:52;;;;;;;15.52;2.83;;;;;;;;;;4995266;28;20080;-55
2021/01/23 02:01:19;;;;;;;19.15;2.75;;;;;;;;;;4985063;28;21028;-55
2021/01/23 02:03:53;;;;;;;11.52;2.00;;;;;;;;;;4992285;28;20953;-53
2021/01/23 02:06:31;;;;;;;9.60;2.25;;;;;;;;;;4990860;28;20734;-54
2021/01/23 02:09:03;;;;;;;11.75;2.22;;;;;;;;;;4993247;28;20447;-53
2021/01/23 02:11:52;;;;;;;11.90;2.00;;;;;;;;;;4991626;28;20045;-53
2021/01/23 02:14:23;;;;;;;8.32;1.55;;;;;;;;;;4992161;28;20034;-55
2021/01/23 02:16:50;;;;;;;7.30;1.80;;;;;;;;;;4991381;28;20049;-53
2021/01/23 02:19:26;;;;;;;12.15;2.50;;;;;;;;;;4991933;28;20030;-54
2021/01/23 02:22:11;;;;;;;9.85;2.75;;;;;;;;;;4991370;28;20092;-55
2021/01/23 02:24:37;;;;;;;7.60;2.17;;;;;;;;;;4992873;28;20030;-52
2021/01/23 02:27:03;;;;;;;22.27;3.17;;;;;;;;;;4993025;28;20050;-52
2021/01/23 02:29:35;;;;;;;26.83;3.83;;;;;;;;;;4992206;28;20068;-52
2021/01/23 02:32:02;;;;;;;12.13;2.47;;;;;;;;;;4993216;28;20038;-56
2021/01/23 02:34:29;;;;;;;12.20;3.13;;;;;;;;;;4991366;28;20053;-53
2021/01/23 02:36:56;;;;;;;21.35;3.85;;;;;;;;;;4992554;28;20045;-52
2021/01/23 02:39:23;;;;;;;20.40;2.55;;;;;;;;;;4986239;28;20411;-52
2021/01/23 02:41:53;;;;;;;14.57;2.30;;;;;;;;;;4991964;28;20101;-53
2021/01/23 02:44:19;;;;;;;14.68;2.50;;;;;;;;;;4982656;28;20049;-52
2021/01/23 02:46:45;;;;;;;19.67;2.38;;;;;;;;;;4976140;28;20056;-55
2021/01/23 02:49:13;;;;;;;15.35;2.78;;;;;;;;;;4992320;28;20030;-55
2021/01/23 02:51:57;;;;;;;9.68;2.63;;;;;;;;;;4993350;28;20052;-54
2021/01/23 02:54:40;;;;;;;15.73;2.15;;;;;;;;;;4991050;28;20157;-54
2021/01/23 02:57:07;;;;;;;13.23;2.58;;;;;;;;;;4975479;28;20030;-52
2021/01/23 02:59:34;;;;;;;18.38;3.00;;;;;;;;;;4977570;28;20061;-56
2021/01/23 03:02:02;;;;;;;23.60;4.18;;;;;;;;;;4994097;28;20049;-53
2021/01/23 03:04:29;;;;;;;13.55;3.58;;;;;;;;;;4992922;28;20939;-54
2021/01/23 03:06:56;;;;;;;20.05;4.05;;;;;;;;;;4991784;28;20698;-56
2021/01/23 03:09:23;;;;;;;14.98;3.95;;;;;;;;;;4991521;28;20049;-54
2021/01/23 03:11:49;;;;;;;14.63;3.40;;;;;;;;;;4993987;28;20046;-54
2021/01/23 03:14:15;;;;;;;22.10;4.47;;;;;;;;;;4993231;28;20156;-53
2021/01/23 03:16:50;;;;;;;13.45;3.20;;;;;;;;;;4991182;28;20030;-55
2021/01/23 03:19:17;;;;;;;11.00;3.33;;;;;;;;;;4995587;28;20030;-52
2021/01/23 03:21:43;;;;;;;18.60;4.45;;;;;;;;;;4994999;28;20049;-52
2021/01/23 03:24:09;;;;;;;17.98;4.35;;;;;;;;;;4995843;28;20066;-53
2021/01/23 03:26:35;;;;;;;14.95;3.25;;;;;;;;;;4990428;28;20042;-53
2021/01/23 03:29:01;;;;;;;23.92;4.38;;;;;;;;;;4992241;28;20037;-54
2021/01/23 03:31:28;;;;;;;17.25;3.08;;;;;;;;;;4990721;28;20044;-52
2021/01/23 03:33:54;;;;;;;25.40;5.07;;;;;;;;;;4992888;28;21850;-56
2021/01/23 03:36:20;;;;;;;13.95;3.50;;;;;;;;;;4991378;28;20112;-53
2021/01/23 03:38:46;;;;;;;15.48;3.30;;;;;;;;;;4991463;28;20038;-54
2021/01/23 03:41:12;;;;;;;12.18;3.17;;;;;;;;;;4991605;28;20042;-54
2021/01/23 03:43:38;;;;;;;13.30;3.63;;;;;;;;;;4991274;28;20048;-55
2021/01/23 03:46:04;;;;;;;19.73;3.85;;;;;;;;;;4992613;28;20147;-52
2021/01/23 03:48:30;;;;;;;15.20;3.22;;;;;;;;;;4991406;28;20053;-52
2021/01/23 03:50:56;;;;;;;19.10;3.78;;;;;;;;;;4990477;28;20402;-52
2021/01/23 03:53:22;;;;;;;15.45;3.53;;;;;;;;;;4991397;28;20029;-55
2021/01/23 03:55:48;;;;;;;14.40;2.78;;;;;;;;;;4991007;28;20044;-53
2021/01/23 03:58:17;;;;;;;17.27;3.20;;;;;;;;;;4991730;28;20049;-55
2021/01/23 04:00:43;;;;;;;12.75;3.45;;;;;;;;;;4990598;28;20029;-52
2021/01/23 04:03:09;;;;;;;18.73;2.75;;;;;;;;;;4990654;28;20034;-54
2021/01/23 04:05:35;;;;;;;15.25;3.58;;;;;;;;;;4989889;28;20045;-54
2021/01/23 04:08:01;;;;;;;10.10;2.60;;;;;;;;;;4989777;28;20643;-55
2021/01/23 04:10:27;;;;;;;25.27;4.00;;;;;;;;;;4989185;28;20686;-54
2021/01/23 04:12:52;;;;;;;21.67;3.70;;;;;;;;;;4990527;28;20044;-55
2021/01/23 04:15:18;;;;;;;14.52;3.38;;;;;;;;;;4990414;28;20041;-55
2021/01/23 04:17:44;;;;;;;16.70;3.00;;;;;;;;;;4992054;28;20069;-55
2021/01/23 04:20:10;;;;;;;10.68;2.97;;;;;;;;;;4991237;28;20056;-55
2021/01/23 04:22:36;;;;;;;13.57;2.53;;;;;;;;;;4991212;28;20061;-54
2021/01/23 04:25:03;;;;;;;15.45;2.63;;;;;;;;;;4990868;28;20042;-52
2021/01/23 04:27:29;;;;;;;11.25;3.55;;;;;;;;;;4990231;28;20074;-53
2021/01/23 04:29:55;;;;;;;16.33;2.70;;;;;;;;;;4989770;28;20122;-53
2021/01/23 04:32:21;;;;;;;13.90;2.65;;;;;;;;;;4989161;28;20490;-53
2021/01/23 04:34:47;;;;;;;19.10;4.13;;;;;;;;;;4991534;28;20494;-53
2021/01/23 04:37:13;;;;;;;18.95;3.65;;;;;;;;;;4989554;28;20042;-56
2021/01/23 04:39:39;;;;;;;9.20;2.88;;;;;;;;;;4979590;28;20083;-55
2021/01/23 04:42:08;;;;;;;13.80;2.85;;;;;;;;;;4993373;28;20104;-55
2021/01/23 04:44:34;;;;;;;16.92;3.28;;;;;;;;;;4993074;28;20096;-54
2021/01/23 04:47:02;;;;;;;19.08;3.25;;;;;;;;;;4985973;28;20109;-51
2021/01/23 04:49:31;;;;;;;15.25;3.00;;;;;;;;;;4993751;28;20045;-51
2021/01/23 04:51:58;;;;;;;12.98;3.00;;;;;;;;;;4992529;28;20057;-54
2021/01/23 04:54:24;;;;;;;10.63;3.10;;;;;;;;;;4992433;28;20467;-54
2021/01/23 04:56:50;;;;;;;18.80;3.17;;;;;;;;;;4992603;28;20042;-53
2021/01/23 04:59:17;;;;;;;21.92;3.35;;;;;;;;;;4991798;28;20096;-54
2021/01/23 05:01:42;;;;;;;14.70;3.83;;;;;;;;;;4993597;28;20042;-54
2021/01/23 05:04:09;;;;;;;7.57;2.55;;;;;;;;;;4993489;28;20426;-53
2021/01/23 05:06:35;;;;;;;13.82;2.55;;;;;;;;;;4992000;28;20034;-52
2021/01/23 05:09:00;;;;;;;22.40;2.97;;;;;;;;;;4992654;28;20716;-54
2021/01/23 05:11:48;;;;;;;10.73;2.47;;;;;;;;;;4991849;28;20039;-55
2021/01/23 05:14:15;;;;;;;8.55;2.58;;;;;;;;;;4992469;28;20042;-54
2021/01/23 05:16:41;;;;;;;6.60;2.10;;;;;;;;;;4991136;28;20042;-53
2021/01/23 05:19:07;;;;;;;17.52;2.85;;;;;;;;;;4992781;28;20034;-53
2021/01/23 05:21:33;;;;;;;11.05;2.35;;;;;;;;;;4993187;28;21955;-54
2021/01/23 05:24:13;;;;;;;8.93;2.40;;;;;;;;;;4993481;28;20149;-56
2021/01/23 05:26:40;;;;;;;5.85;1.80;;;;;;;;;;4992365;28;20116;-53
2021/01/23 05:29:07;;;;;;;8.98;2.00;;;;;;;;;;4992783;28;20519;-53
2021/01/23 05:31:33;;;;;;;8.57;1.73;;;;;;;;;;4991540;28;20133;-54
2021/01/23 05:33:59;;;;;;;4.80;1.45;;;;;;;;;;4991903;28;20040;-53
2021/01/23 05:36:24;;;;;;;4.25;1.48;;;;;;;;;;4991347;28;20072;-55
2021/01/23 05:38:50;;;;;;;8.07;1.73;;;;;;;;;;4969856;28;20056;-55
2021/01/23 05:41:16;;;;;;;9.05;2.22;;;;;;;;;;4974992;28;20066;-53
2021/01/23 05:43:46;;;;;;;7.18;1.80;;;;;;;;;;4991597;28;20050;-53
2021/01/23 05:46:27;;;;;;;8.73;2.03;;;;;;;;;;4990150;28;20053;-54
2021/01/23 05:48:54;;;;;;;5.57;1.63;;;;;;;;;;4990690;28;20042;-55
2021/01/23 05:51:20;;;;;;;6.68;1.38;;;;;;;;;;4991711;28;20042;-55
2021/01/23 05:53:47;;;;;;;12.75;2.60;;;;;;;;;;4990505;28;20034;-53
2021/01/23 05:56:13;;;;;;;8.98;1.85;;;;;;;;;;4992275;28;20058;-54
2021/01/23 05:58:40;;;;;;;7.38;1.65;;;;;;;;;;4991282;28;20545;-55
2021/01/23 06:01:10;;;;;;;5.60;1.38;;;;;;;;;;4990084;28;20045;-56
2021/01/23 06:03:37;;;;;;;5.65;1.50;;;;;;;;;;4990675;28;20498;-56
2021/01/23 06:06:03;;;;;;;5.32;1.58;;;;;;;;;;4990476;28;20053;-56
2021/01/23 06:08:55;;;;;;;4.25;1.38;;;;;;;;;;4993551;28;20133;-54
2021/01/23 06:11:21;;;;;;;6.35;1.40;;;;;;;;;;4986403;28;20068;-55
2021/01/23 06:13:50;;;;;;;12.18;1.25;;;;;;;;;;4991086;28;20501;-53
2021/01/23 06:16:34;;;;;;;7.72;1.23;;;;;;;;;;4992672;28;20568;-55
2021/01/23 06:19:00;;;;;;;7.20;1.48;;;;;;;;;;4992373;28;20046;-55
2021/01/23 06:21:44;;;;;;;4.30;1.25;;;;;;;;;;4989658;28;20042;-54
2021/01/23 06:24:17;;;;;;;5.82;1.45;;;;;;;;;;4992729;28;20066;-54
2021/01/23 06:26:52;;;;;;;9.48;1.65;;;;;;;;;;4989380;28;20715;-55
2021/01/23 06:29:36;;;;;;;5.90;1.20;;;;;;;;;;4991884;28;20037;-56
2021/01/23 06:32:02;;;;;;;;;;;;;;;;;;4992319;28;20077;-57
2021/01/23 06:34:28;;;;;;;7.43;1.67;;;;;;;;;;4990512;28;20314;-56
2021/01/23 06:37:13;;;;;;;3.38;1.00;;;;;;;;;;4991962;28;20037;-56
2021/01/23 06:39:58;;;;;;;4.72;1.52;;;;;;;;;;4992930;28;20081;-56
2021/01/23 06:42:24;;;;;;;4.85;1.38;;;;;;;;;;4992787;28;20065;-55
2021/01/23 06:44:49;;;;;;;4.85;1.33;;;;;;;;;;4994512;28;20105;-57
2021/01/23 06:47:15;;;;;;;5.93;1.27;;;;;;;;;;4993136;28;20053;-55
2021/01/23 06:49:42;;;;;;;3.70;1.23;;;;;;;;;;4988749;28;20038;-56
2021/01/23 06:52:08;;;;;;;6.57;1.20;;;;;;;;;;4992354;28;21982;-56
2021/01/23 06:54:35;;;;;;;3.75;1.23;;;;;;;;;;4990433;28;20042;-54
2021/01/23 06:57:02;;;;;;;4.72;1.17;;;;;;;;;;4990133;28;20394;-56
2021/01/23 06:59:28;;;;;;;6.93;1.70;;;;;;;;;;4992714;28;20034;-56
2021/01/23 07:01:58;;;;;;;6.75;1.23;;;;;;;;;;4992830;28;20129;-55
2021/01/23 07:04:24;;;;;;;10.00;1.83;;;;;;;;;;4991743;28;20136;-57
2021/01/23 07:06:52;;;;;;;7.57;1.77;;;;;;;;;;4992218;28;20045;-57
2021/01/23 07:09:17;;;;;;;3.85;1.30;;;;;;;;;;4990073;28;20034;-54
2021/01/23 07:11:43;;;;;;;4.85;1.33;;;;;;;;;;4990903;28;20110;-54
2021/01/23 07:14:09;;;;;;;7.85;1.35;;;;;;;;;;4991983;28;20113;-52
2021/01/23 07:16:36;;;;;;;5.57;1.55;;;;;;;;;;4991467;28;20428;-54
2021/01/23 07:19:04;;;;;;;5.50;1.50;;;;;;;;;;4990750;28;20046;-55
2021/01/23 07:21:31;;;;;;;6.40;1.83;;;;;;;;;;4989817;28;20046;-53
2021/01/23 07:23:57;;;;;;;5.63;1.98;;;;;;;;;;4990660;28;20108;-54
2021/01/23 07:26:24;;;;;;;9.73;1.88;;;;;;;;;;4988864;28;20042;-52
2021/01/23 07:28:54;;;;;;;6.80;1.90;;;;;;;;;;4989452;28;20057;-52
2021/01/23 07:31:27;;;;;;;5.65;1.77;;;;;;;;;;4991109;28;20087;-55
2021/01/23 07:33:53;;;;;;;10.77;1.80;;;;;;;;;;4991001;28;20037;-52
2021/01/23 07:36:34;;;;;;;6.32;1.27;;;;;;;;;;4989644;28;20053;-52
2021/01/23 07:39:01;;;;;;;4.20;1.33;;;;;;;;;;4992364;28;20042;-52
2021/01/23 07:41:31;;;;;;;6.00;1.65;;;;;;;;;;4990696;28;20041;-55
2021/01/23 07:43:57;;;;;;;3.30;1.30;;;;;;;;;;4992525;28;20403;-56
2021/01/23 07:46:23;;;;;;;4.50;1.88;;;;;;;;;;4989459;28;20601;-52
2021/01/23 07:48:49;;;;;;;8.80;1.98;;;;;;;;;;4992336;28;20050;-54
2021/01/23 07:51:22;;;;;;;5.18;1.88;;;;;;;;;;4990029;28;20681;-55
2021/01/23 07:54:07;;;;;;;6.70;1.87;;;;;;;;;;4991813;28;20048;-55
2021/01/23 07:56:33;;;;;;;7.28;2.45;;;;;;;;;;4988789;28;20048;-54
2021/01/23 07:58:59;;;;;;;6.95;1.83;;;;;;;;;;4992189;28;20118;-56
2021/01/23 08:01:25;;;;;;;7.15;2.55;;;;;;;;;;4989053;28;20113;-55
2021/01/23 08:03:51;;;;;;;12.30;2.47;;;;;;;;;;4992758;28;20124;-56
2021/01/23 08:06:21;;;;;;;7.75;2.67;;;;;;;;;;4976458;28;20037;-54
2021/01/23 08:08:48;;;;;;;6.82;2.25;;;;;;;;;;4986915;28;20070;-53
2021/01/23 08:11:32;;;;;;;6.53;2.20;;;;;;;;;;4991600;28;20029;-53
2021/01/23 08:14:08;;;;;;;10.80;2.88;;;;;;;;;;4993041;28;20045;-54
2021/01/23 08:16:34;;;;;;;9.75;2.60;;;;;;;;;;4995470;28;20041;-55
2021/01/23 08:19:07;;;;;;;8.30;2.40;;;;;;;;;;4996899;28;21968;-53
2021/01/23 08:21:33;;;;;;;10.33;2.40;;;;;;;;;;4994934;28;20120;-55
2021/01/23 08:23:59;;;;;;;6.03;2.55;;;;;;;;;;4995542;28;20287;-56
2021/01/23 08:26:54;;;;;;;6.80;2.20;;;;;;;;;;4992588;28;20053;-52
2021/01/23 08:29:20;;;;;;;5.80;2.40;;;;;;;;;;4983223;28;20054;-54
2021/01/23 08:31:59;;;;;;;9.50;2.78;;;;;;;;;;4993569;28;20038;-52
2021/01/23 08:34:25;;;;;;;11.85;2.67;;;;;;;;;;4994114;28;20054;-54
2021/01/23 08:36:51;;;;;;;11.50;2.92;;;;;;;;;;4994692;28;20065;-55
2021/01/23 08:39:17;;;;;;;10.25;2.55;;;;;;;;;;4997059;28;20494;-55
2021/01/23 08:41:42;;;;;;;11.55;3.15;;;;;;;;;;4994345;28;20049;-52
2021/01/23 08:44:08;;;;;;;9.25;3.00;;;;;;;;;;4992716;28;20537;-52
2021/01/23 08:46:34;;;;;;;9.88;3.55;;;;;;;;;;4993974;28;20372;-55
2021/01/23 08:49:00;;;;;;;7.15;2.60;;;;;;;;;;4996704;28;20829;-54
2021/01/23 08:51:26;;;;;;;9.30;2.90;;;;;;;;;;4994754;28;20038;-54
2021/01/23 08:53:52;;;;;;;6.43;2.08;;;;;;;;;;4995338;28;20052;-54
2021/01/23 08:56:17;;;;;;;6.13;2.67;;;;;;;;;;4994958;28;20403;-54
2021/01/23 08:58:43;;;;;;;5.68;2.83;;;;;;;;;;4994352;28;20834;-55
2021/01/23 09:01:09;;;;;;;9.52;2.53;;;;;;;;;;4997392;28;20071;-55
2021/01/23 09:03:35;;;;;;;7.78;2.20;;;;;;;;;;4993276;28;20053;-53
2021/01/23 09:06:01;;;;;;;5.30;2.15;;;;;;;;;;4994411;28;20657;-52
2021/01/23 09:08:27;;;;;;;6.40;2.58;;;;;;;;;;4995351;28;20480;-55
2021/01/23 09:10:53;;;;;;;10.52;2.40;;;;;;;;;;4994856;28;20392;-53
2021/01/23 09:13:19;;;;;;;5.38;2.05;;;;;;;;;;4994856;28;20467;-54
2021/01/23 09:15:44;;;;;;;9.95;2.28;;;;;;;;;;4994352;28;20046;-53
2021/01/23 09:18:10;;;;;;;8.55;2.00;;;;;;;;;;4994723;28;20502;-54
2021/01/23 09:20:36;;;;;;;5.78;2.17;;;;;;;;;;4992554;28;20053;-54
2021/01/23 09:23:02;;;;;;;5.75;2.05;;;;;;;;;;4992561;28;20049;-55
2021/01/23 09:25:28;;;;;;;6.07;2.17;;;;;;;;;;4992839;28;20045;-52
2021/01/23 09:27:54;;;;;;;5.97;2.10;;;;;;;;;;4992522;28;20399;-55
2021/01/23 09:30:20;;;;;;;7.65;2.25;;;;;;;;;;4995143;28;20514;-55
2021/01/23 09:32:45;;;;;;;8.75;2.05;;;;;;;;;;4995388;28;20037;-53
2021/01/23 09:35:12;;;;;;;6.75;1.95;;;;;;;;;;4995295;28;20074;-55
2021/01/23 09:37:38;;;;;;;6.10;1.70;;;;;;;;;;4995333;28;20053;-54
2021/01/23 09:40:05;;;;;;;6.78;1.65;;;;;;;;;;4992915;28;20056;-55
2021/01/23 09:42:31;;;;;;;5.82;1.70;;;;;;;;;;4992971;28;20507;-53
2021/01/23 09:44:58;;;;;;;5.25;1.65;;;;;;;;;;4993621;28;20127;-54
2021/01/23 09:47:24;;;;;;;9.05;1.75;;;;;;;;;;4993194;28;20065;-55
2021/01/23 09:49:49;;;;;;;7.10;1.63;;;;;;;;;;4993868;28;20036;-55
2021/01/23 09:52:15;;;;;;;8.68;2.05;;;;;;;;;;4994280;28;20515;-54
2021/01/23 09:54:41;;;;;;;8.85;1.77;;;;;;;;;;4991881;28;20097;-52
2021/01/23 09:57:07;;;;;;;9.75;1.85;;;;;;;;;;4993319;28;20050;-55
2021/01/23 09:59:33;;;;;;;10.23;2.28;;;;;;;;;;4992752;28;20442;-54
2021/01/23 10:01:59;;;;;;;7.53;1.67;;;;;;;;;;4992857;28;20283;-56
2021/01/23 10:04:26;;;;;;;9.40;2.05;;;;;;;;;;4992608;28;20069;-54
2021/01/23 10:06:51;;;;;;;11.23;2.03;;;;;;;;;;4992196;28;20406;-55
2021/01/23 10:09:17;;;;;;;7.30;1.88;;;;;;;;;;4993880;28;20037;-54
2021/01/23 10:11:44;;;;;;;11.63;2.80;;;;;;;;;;4993587;28;20041;-56
2021/01/23 10:14:10;;;;;;;6.20;1.90;;;;;;;;;;4992464;28;20057;-54
2021/01/23 10:16:36;;;;;;;6.68;1.80;;;;;;;;;;4993477;28;20045;-55
2021/01/23 10:19:04;;;;;;;10.70;1.80;;;;;;;;;;4991856;28;20042;-56
2021/01/23 10:21:30;;;;;;;6.20;1.90;;;;;;;;;;4993331;28;20046;-55
2021/01/23 10:23:57;;;;;;;9.57;1.92;;;;;;;;;;4993313;28;20026;-56
2021/01/23 10:26:22;;;;;;;8.20;2.03;;;;;;;;;;4993973;28;20112;-55
2021/01/23 10:28:48;;;;;;;9.23;2.10;;;;;;;;;;4996486;28;20674;-56
2021/01/23 10:31:14;;;;;;;9.82;2.00;;;;;;;;;;4994701;28;20043;-53
2021/01/23 10:33:40;;;;;;;8.32;2.15;;;;;;;;;;4992786;28;20052;-56
2021/01/23 10:36:06;;;;;;;4.97;1.90;;;;;;;;;;4994281;28;20053;-55
2021/01/23 10:38:32;;;;;;;7.93;2.00;;;;;;;;;;4992127;28;20176;-57
2021/01/23 10:40:58;;;;;;;5.70;1.92;;;;;;;;;;4995776;28;20831;-55
2021/01/23 10:43:23;;;;;;;10.07;1.85;;;;;;;;;;4993799;28;20383;-56
2021/01/23 10:45:49;;;;;;;9.90;1.70;;;;;;;;;;4994802;28;20612;-56
2021/01/23 10:48:15;;;;;;;8.80;2.03;;;;;;;;;;4994872;28;20120;-53
2021/01/23 10:50:42;;;;;;;12.75;2.05;;;;;;;;;;4992789;28;20124;-54
2021/01/23 10:53:08;;;;;;;10.00;1.70;;;;;;;;;;4992961;28;21898;-56
2021/01/23 10:55:34;;;;;;;8.48;2.15;;;;;;;;;;4991383;28;20038;-55
2021/01/23 10:58:00;;;;;;;5.75;1.63;;;;;;;;;;4994560;28;20077;-53
2021/01/23 11:00:26;;;;;;;7.90;1.88;;;;;;;;;;4994243;28;20037;-56
2021/01/23 11:02:52;;;;;;;11.25;2.00;;;;;;;;;;4992625;28;20392;-53
2021/01/23 11:05:18;;;;;;;11.20;2.70;;;;;;;;;;4993455;28;20038;-56
2021/01/23 11:07:44;;;;;;;7.75;2.25;;;;;;;;;;4992386;28;20049;-54
2021/01/23 11:10:10;;;;;;;11.20;2.58;;;;;;;;;;4991227;28;20119;-52
2021/01/23 11:12:36;;;;;;;8.40;2.17;;;;;;;;;;4991172;28;20034;-54
2021/01/23 11:15:02;;;;;;;5.55;1.83;;;;;;;;;;4992416;28;20060;-53
2021/01/23 11:17:28;;;;;;;7.55;2.20;;;;;;;;;;4991080;28;20046;-56
2021/01/23 11:19:54;;;;;;;7.43;2.90;;;;;;;;;;4993421;28;20041;-55
2021/01/23 11:22:20;;;;;;;6.13;2.20;;;;;;;;;;4992705;28;20045;-55
2021/01/23 11:24:45;;;;;;;10.90;2.47;;;;;;;;;;4992804;28;20038;-52
2021/01/23 11:27:11;;;;;;;12.82;2.63;;;;;;;;;;4991337;28;20406;-55
2021/01/23 11:29:38;;;;;;;9.32;2.55;;;;;;;;;;4991711;28;21678;-53
2021/01/23 11:32:04;;;;;;;7.30;1.92;;;;;;;;;;4993632;28;20037;-55
2021/01/23 11:34:30;;;;;;;15.27;2.38;;;;;;;;;;4992752;28;20056;-53
2021/01/23 11:36:56;;;;;;;8.75;2.25;;;;;;;;;;4992519;28;20104;-53
2021/01/23 11:39:22;;;;;;;11.40;2.05;;;;;;;;;;4992467;28;20978;-54
2021/01/23 11:41:48;;;;;;;8.13;2.05;;;;;;;;;;4992073;28;20444;-56
2021/01/23 11:44:14;;;;;;;11.68;2.10;;;;;;;;;;4991626;28;20107;-55
2021/01/23 11:46:40;;;;;;;7.13;2.10;;;;;;;;;;4990700;28;20108;-56
2021/01/23 11:49:06;;;;;;;9.63;2.83;;;;;;;;;;4992560;28;20890;-54
2021/01/23 11:51:33;;;;;;;6.03;2.53;;;;;;;;;;4991156;28;20034;-55
2021/01/23 11:53:59;;;;;;;9.65;2.35;;;;;;;;;;4993311;28;20863;-52
2021/01/23 11:56:26;;;;;;;11.77;2.53;;;;;;;;;;4991186;28;20447;-55
2021/01/23 11:58:53;;;;;;;8.50;1.90;;;;;;;;;;4993304;28;20041;-54
2021/01/23 12:01:18;;;;;;;9.23;2.50;;;;;;;;;;4975668;28;20034;-56
2021/01/23 12:03:44;;;;;;;7.53;2.08;;;;;;;;;;4990437;28;20446;-55
2021/01/23 12:06:10;;;;;;;11.13;2.88;;;;;;;;;;4990679;28;20034;-53
2021/01/23 12:08:36;;;;;;;8.85;2.60;;;;;;;;;;4991513;28;20490;-53
2021/01/23 12:11:02;;;;;;;11.55;2.70;;;;;;;;;;4993215;28;20037;-55
2021/01/23 12:13:28;;;;;;;7.75;2.42;;;;;;;;;;4990466;28;20052;-53
2021/01/23 12:15:54;;;;;;;13.65;2.97;;;;;;;;;;4992827;28;20042;-53
2021/01/23 12:18:20;;;;;;;9.98;2.25;;;;;;;;;;4990879;28;20096;-54
2021/01/23 12:20:48;;;;;;;10.50;2.72;;;;;;;;;;4992528;28;20066;-56
2021/01/23 12:23:14;;;;;;;10.55;2.55;;;;;;;;;;4990061;28;20061;-52
2021/01/23 12:25:40;;;;;;;10.50;2.20;;;;;;;;;;4991275;28;20144;-53
2021/01/23 12:28:06;;;;;;;8.55;2.25;;;;;;;;;;4993774;28;20058;-52
2021/01/23 12:30:32;;;;;;;8.82;2.60;;;;;;;;;;4992186;28;20396;-54
2021/01/23 12:32:57;;;;;;;9.57;2.60;;;;;;;;;;4992703;28;20475;-54
2021/01/23 12:35:23;;;;;;;7.75;2.13;;;;;;;;;;4991794;28;20520;-52
2021/01/23 12:37:51;;;;;;;9.13;3.33;;;;;;;;;;4990934;28;20823;-55
2021/01/23 12:40:17;;;;;;;10.15;2.58;;;;;;;;;;4991832;28;20045;-52
2021/01/23 12:42:43;;;;;;;9.45;3.00;;;;;;;;;;4990305;28;20359;-55
2021/01/23 12:45:10;;;;;;;8.40;2.67;;;;;;;;;;4991024;28;20616;-54
2021/01/23 12:47:36;;;;;;;11.98;2.65;;;;;;;;;;4991123;28;21121;-56
2021/01/23 12:50:03;;;;;;;8.63;2.30;;;;;;;;;;4980904;28;20097;-55
2021/01/23 12:52:30;;;;;;;11.48;2.45;;;;;;;;;;4969271;28;20034;-54
2021/01/23 12:54:55;;;;;;;11.73;2.38;;;;;;;;;;4991080;28;20119;-56
2021/01/23 12:57:21;;;;;;;14.00;2.70;;;;;;;;;;4992226;28;20489;-56
2021/01/23 12:59:47;;;;;;;9.65;2.47;;;;;;;;;;4992810;28;20049;-52
2021/01/23 13:02:13;;;;;;;14.27;2.33;;;;;;;;;;4992932;28;20050;-55
2021/01/23 13:04:39;;;;;;;13.23;2.15;;;;;;;;;;4995953;28;20140;-55
2021/01/23 13:07:06;;;;;;;9.45;2.17;;;;;;;;;;4995330;28;20060;-54
2021/01/23 13:09:33;;;;;;;12.40;2.40;;;;;;;;;;4995957;28;20052;-55
2021/01/23 13:12:00;;;;;;;9.98;2.40;;;;;;;;;;4994720;28;20374;-55
2021/01/23 13:14:26;;;;;;;13.50;2.20;;;;;;;;;;4993061;28;20088;-56
2021/01/23 13:16:52;;;;;;;9.27;2.00;;;;;;;;;;4995193;28;20042;-55
2021/01/23 13:19:18;;;;;;;9.05;2.38;;;;;;;;;;4993583;28;20431;-52
2021/01/23 13:21:43;;;;;;;7.90;2.00;;;;;;;;;;4993426;28;20045;-56
2021/01/23 13:24:09;;;;;;;11.80;2.28;;;;;;;;;;4994959;28;20121;-56
2021/01/23 13:26:35;;;;;;;11.27;2.22;;;;;;;;;;4996101;28;20056;-56
2021/01/23 13:29:01;;;;;;;12.68;2.58;;;;;;;;;;4995737;28;20107;-53
2021/01/23 13:31:28;;;;;;;9.07;1.90;;;;;;;;;;4995853;28;20038;-53
2021/01/23 13:33:54;;;;;;;9.60;1.85;;;;;;;;;;4996506;28;20038;-52
2021/01/23 13:36:20;;;;;;;10.85;2.72;;;;;;;;;;4995151;28;20056;-53
2021/01/23 13:38:46;;;;;;;13.05;2.72;;;;;;;;;;4995297;28;20756;-55
2021/01/23 13:41:12;;;;;;;9.40;2.15;;;;;;;;;;4994917;28;20046;-54
2021/01/23 13:43:38;;;;;;;11.35;1.90;;;;;;;;;;4993939;28;20549;-54
2021/01/23 13:46:04;;;;;;;14.25;2.67;;;;;;;;;;4995170;28;20038;-52
2021/01/23 13:48:29;;;;;;;9.90;2.05;;;;;;;;;;4993961;28;20054;-55
2021/01/23 13:50:55;;;;;;;13.13;1.98;;;;;;;;;;4992411;28;20946;-55
2021/01/23 13:53:21;;;;;;;10.60;1.88;;;;;;;;;;4992904;28;20041;-53
2021/01/23 13:55:47;;;;;;;7.25;1.90;;;;;;;;;;4993002;28;20046;-54
2021/01/23 13:58:13;;;;;;;12.45;1.83;;;;;;;;;;4992561;28;20093;-55
2021/01/23 14:00:39;;;;;;;10.20;2.15;;;;;;;;;;4992820;28;20054;-52
2021/01/23 14:03:05;;;;;;;12.13;2.20;;;;;;;;;;4993345;28;20372;-55
2021/01/23 14:05:31;;;;;;;13.18;2.17;;;;;;;;;;4992810;28;20088;-54
2021/01/23 14:07:57;;;;;;;15.35;2.58;;;;;;;;;;4992608;28;20054;-54
2021/01/23 14:10:23;;;;;;;10.80;2.38;;;;;;;;;;4991991;28;20534;-55
2021/01/23 14:12:49;;;;;;;11.23;2.40;;;;;;;;;;4994164;28;20898;-54
2021/01/23 14:15:15;;;;;;;14.85;2.40;;;;;;;;;;4994132;28;20046;-56
2021/01/23 14:17:41;;;;;;;9.77;1.88;;;;;;;;;;4992197;28;20065;-53
2021/01/23 14:20:07;;;;;;;8.82;2.17;;;;;;;;;;4993025;28;20133;-53
2021/01/23 14:22:33;;;;;;;9.50;2.47;;;;;;;;;;4994183;28;20125;-53
2021/01/23 14:24:59;;;;;;;8.90;1.70;;;;;;;;;;4993311;28;20030;-52
2021/01/23 14:27:28;;;;;;;12.13;2.45;;;;;;;;;;4993018;28;20631;-54
2021/01/23 14:29:56;;;;;;;8.35;2.13;;;;;;;;;;4995430;28;20922;-54
2021/01/23 14:32:22;;;;;;;20.15;2.65;;;;;;;;;;4992141;28;20124;-55
2021/01/23 14:34:48;;;;;;;10.98;3.80;;;;;;;;;;4992518;28;20141;-53
2021/01/23 14:37:14;;;;;;;10.52;2.17;;;;;;;;;;4993710;28;20526;-55
2021/01/23 14:39:40;;;;;;;12.10;2.10;;;;;;;;;;4992278;28;20034;-54